createdAt,value
2022-07-28T00:09:53.572Z,74516.19
2022-07-28T00:20:00.863Z,74528.31
2022-07-28T00:30:07.190Z,74544.50
2022-07-28T00:40:15.181Z,74562.72
2022-07-28T00:50:22.579Z,74576.88
2022-07-28T01:00:24.742Z,74589.00
2022-07-28T01:10:51.489Z,74597.09
2022-07-28T01:21:05.585Z,74609.25
2022-07-28T01:31:09.479Z,74580.94
2022-07-28T01:41:19.892Z,74593.06
2022-07-28T01:51:24.050Z,74609.25
2022-07-28T02:01:27.952Z,74613.28
2022-07-28T02:11:40.343Z,74625.44
2022-07-28T02:21:47.888Z,74629.47
2022-07-28T02:31:53.227Z,74637.56
2022-07-28T02:42:05.602Z,74645.66
2022-07-28T02:52:09.430Z,74651.75
2022-07-28T03:02:12.237Z,74637.56
2022-07-28T03:12:14.476Z,74593.06
2022-07-28T03:22:18.805Z,74550.56
2022-07-28T03:32:22.175Z,74467.63
2022-07-28T03:42:26.968Z,74376.59
2022-07-28T03:52:29.030Z,74281.50
2022-07-28T04:02:31.111Z,74204.63
2022-07-28T04:12:50.062Z,74141.91
2022-07-28T04:22:55.975Z,74067.06
2022-07-28T04:32:58.170Z,73986.13
2022-07-28T04:43:00.295Z,73885.00
2022-07-28T04:53:03.564Z,73808.13
2022-07-28T05:03:05.676Z,73759.56
2022-07-28T05:13:11.255Z,73717.09
2022-07-28T05:23:13.536Z,73642.25
2022-07-28T05:33:16.626Z,73634.16
2022-07-28T05:43:21.390Z,73636.19
2022-07-28T05:53:27.181Z,73581.56
2022-07-28T06:03:32.185Z,73585.63
2022-07-28T06:13:39.945Z,73502.69
2022-07-28T06:23:46.403Z,73470.31
2022-07-28T06:33:52.809Z,73492.56
2022-07-28T06:43:55.572Z,73456.16
2022-07-28T06:54:01.725Z,73496.63
2022-07-28T07:04:04.307Z,73506.72
2022-07-28T07:14:09.044Z,73474.38
2022-07-28T07:24:16.628Z,73476.41
2022-07-28T07:34:19.000Z,73450.09
2022-07-28T07:44:21.700Z,73405.59
2022-07-28T07:54:26.279Z,73512.81
2022-07-28T08:04:31.349Z,73427.84
2022-07-28T08:14:35.758Z,73397.50
2022-07-28T08:24:42.080Z,73403.56
2022-07-28T08:34:46.330Z,73470.31
2022-07-28T08:45:05.401Z,73512.81
2022-07-28T08:55:10.939Z,73403.56
2022-07-28T09:05:16.236Z,73409.66
2022-07-28T09:15:20.687Z,73433.91
2022-07-28T09:25:26.748Z,73518.88
2022-07-28T09:35:32.582Z,73522.91
2022-07-28T09:45:35.175Z,73567.41
2022-07-28T09:55:55.215Z,73613.94
2022-07-28T10:05:59.381Z,73537.06
2022-07-28T10:16:11.011Z,73545.16
2022-07-28T10:26:17.820Z,73553.25
2022-07-28T10:36:24.167Z,73587.66
2022-07-28T10:46:30.399Z,73644.28
2022-07-28T10:56:34.547Z,73622.03
2022-07-28T11:06:46.268Z,73617.97
2022-07-28T11:16:48.423Z,73615.97
2022-07-28T11:27:03.923Z,73626.06
2022-07-28T11:37:13.383Z,73589.66
2022-07-28T11:47:19.032Z,73581.56
2022-07-28T11:57:26.175Z,73630.13
2022-07-28T12:07:41.274Z,73585.63
2022-07-28T12:17:46.015Z,73573.47
2022-07-28T12:27:48.690Z,73573.47
2022-07-28T12:37:52.751Z,73559.31
2022-07-28T12:47:57.189Z,73557.31
2022-07-28T12:58:08.263Z,73581.56
2022-07-28T13:08:17.299Z,73581.56
2022-07-28T13:18:39.327Z,73581.56
2022-07-28T13:28:44.485Z,73551.22
2022-07-28T13:38:48.010Z,73524.94
2022-07-28T13:48:58.171Z,73524.94
2022-07-28T13:59:02.302Z,73496.63
2022-07-28T14:09:05.113Z,73466.28
2022-07-28T14:19:23.494Z,73492.56
2022-07-28T14:29:41.125Z,73533.03
2022-07-28T14:39:43.311Z,73516.84
2022-07-28T14:49:57.763Z,73553.25
2022-07-28T15:00:07.804Z,73549.22
2022-07-28T15:10:10.779Z,73559.31
2022-07-28T15:20:15.240Z,73559.31
2022-07-28T15:30:17.345Z,73563.38
2022-07-28T15:40:20.662Z,73551.22
2022-07-28T15:50:25.795Z,73577.53
2022-07-28T16:00:30.961Z,73579.56
2022-07-28T16:10:33.302Z,73595.72
2022-07-28T16:20:35.520Z,73595.72
2022-07-28T16:30:42.453Z,73624.06
2022-07-28T16:40:44.860Z,73626.06
2022-07-28T16:50:51.432Z,73624.06
2022-07-28T17:00:58.096Z,73650.34
2022-07-28T17:11:04.221Z,73644.28
2022-07-28T17:21:06.383Z,73678.66
2022-07-28T17:31:09.509Z,73702.94
2022-07-28T17:41:11.631Z,73719.13
2022-07-28T17:51:16.172Z,73737.31
2022-07-28T18:01:18.813Z,73755.53
2022-07-28T18:11:23.320Z,73771.72
2022-07-28T18:21:27.914Z,73796.00
2022-07-28T18:31:32.512Z,73824.31
2022-07-28T18:41:47.349Z,73846.56
2022-07-28T18:51:51.432Z,73878.94
2022-07-28T19:01:54.601Z,73901.19
2022-07-28T19:11:57.934Z,73921.41
2022-07-28T19:22:02.462Z,73927.47
2022-07-28T19:32:04.964Z,73931.53
2022-07-28T19:42:11.552Z,73941.63
2022-07-28T19:52:16.727Z,73949.72
2022-07-28T20:02:25.042Z,73978.03
2022-07-28T20:12:35.801Z,73986.13
2022-07-28T20:22:41.819Z,73994.22
2022-07-28T20:32:46.700Z,74004.34
2022-07-28T20:42:53.631Z,73994.22
2022-07-28T20:53:00.219Z,74012.44
2022-07-28T21:03:12.283Z,74028.63
2022-07-28T21:13:17.400Z,74038.75
2022-07-28T21:23:21.676Z,74081.22
2022-07-28T21:33:25.386Z,74105.50
2022-07-28T21:43:29.968Z,74139.88
2022-07-28T21:53:36.521Z,74156.06
2022-07-28T22:03:40.127Z,74184.38
2022-07-28T22:13:42.429Z,74237.00
2022-07-28T22:23:46.856Z,74336.13
2022-07-28T22:33:51.288Z,74370.50
2022-07-28T22:43:53.365Z,74419.06
2022-07-28T22:53:57.461Z,74439.31
2022-07-28T23:03:59.772Z,74465.59
2022-07-28T23:14:09.740Z,74500.00
2022-07-28T23:24:21.100Z,74502.03
2022-07-28T23:34:24.128Z,74520.22
2022-07-28T23:44:29.318Z,74526.28
2022-07-28T23:54:40.723Z,74552.59
